Time;durP1;ratioP1;P1;durP2;ratioP2;P2;SDS_P1;SDS_P2;PMS_P1;PMS_P2;Temp;Humidity;BMP_temperature;BMP_pressure;BME280_temperature;BME280_humidity;BME280_pressure;Samples;Min_cycle;Max_cycle;Signal;HPM_P1;HPM_P2
2021/09/05 00:00:01;;;;;;;;;;;21.30;94.10;21.60;99522.00;;;;337273;28;95271;-93
2021/09/05 00:00:13;;;;;;;;;;;21.30;94.00;21.60;99514.00;;;;336677;28;82776;-93
2021/09/05 00:00:25;;;;;;;;;;;21.30;93.90;21.70;99516.00;;;;333449;29;96773;-93
2021/09/05 00:00:37;;;;;;;;;;;21.30;93.90;21.70;99524.00;;;;335452;29;83443;-93
2021/09/05 00:00:49;;;;;;;;;;;21.30;94.00;21.70;99526.00;;;;334943;28;92163;-94
2021/09/05 00:01:01;;;;;;;;;;;21.30;94.00;21.70;99524.00;;;;335448;28;82664;-93
2021/09/05 00:01:13;;;;;;;;;;;21.40;94.10;21.80;99519.00;;;;334564;29;97057;-93
2021/09/05 00:01:25;;;;;;;;;;;21.40;94.00;21.80;99519.00;;;;335515;29;82548;-91
2021/09/05 00:01:37;;;;;;;;;;;21.40;94.00;21.80;99518.00;;;;334763;29;97743;-93
2021/09/05 00:01:50;;;;;;;;;;;21.40;94.00;21.80;99517.00;;;;336801;28;82388;-93
2021/09/05 00:02:02;;;;;;;;;;;21.40;93.90;21.70;99515.00;;;;333315;29;96890;-92
2021/09/05 00:02:14;;;;;;;;;;;21.40;93.90;21.60;99521.00;;;;335447;29;83475;-92
2021/09/05 00:02:27;;;;;;;;;;;21.40;93.80;21.60;99526.00;;;;336043;28;96927;-93
2021/09/05 00:02:39;;;;;;;;;;;21.40;93.70;21.60;99522.00;;;;335167;29;82667;-93
2021/09/05 00:02:51;;;;;;;;;;;21.40;93.70;21.60;99516.00;;;;334175;29;93081;-94
2021/09/05 00:03:03;;;;;;;;;;;21.40;93.70;21.60;99520.00;;;;334165;29;83998;-93
2021/09/05 00:03:15;;;;;;;;;;;21.40;93.70;21.60;99522.00;;;;334672;29;95578;-94
2021/09/05 00:03:27;;;;;;;;;;;21.40;93.70;21.60;99524.00;;;;334197;29;83355;-92
2021/09/05 00:03:39;;;;;;;;;;;21.40;93.70;21.60;99516.00;;;;333476;29;94916;-92
2021/09/05 00:03:51;;;;;;;;;;;21.40;93.70;21.60;99515.00;;;;336805;28;82587;-93
2021/09/05 00:04:03;;;;;;;;;;;21.40;93.70;21.60;99519.00;;;;334712;29;96354;-94
2021/09/05 00:04:15;;;;;;;;;;;21.40;93.60;21.60;99523.00;;;;335459;29;82450;-94
2021/09/05 00:04:27;;;;;;;;;;;21.40;93.60;21.60;99519.00;;;;333188;29;97396;-92
2021/09/05 00:04:39;;;;;;;;;;;21.40;93.60;21.60;99522.00;;;;336790;28;82515;-93
2021/09/05 00:04:51;;;;;;;;;;;21.40;93.60;21.60;99520.00;;;;335967;28;95494;-93
2021/09/05 00:05:03;;;;;;;;;;;21.40;93.70;21.50;99513.00;;;;336807;28;82605;-94
2021/09/05 00:05:15;;;;;;;;;;;21.40;93.80;21.60;99523.00;;;;334694;29;95460;-94
2021/09/05 00:05:29;;;;;;;;;;;21.40;93.70;21.50;99512.00;;;;332987;29;82465;-93
2021/09/05 00:05:41;;;;;;;;;;;21.40;93.80;21.50;99514.00;;;;331664;29;97170;-91
2021/09/05 00:05:52;;;;;;;;;;;21.40;93.90;21.50;99515.00;;;;333128;29;82636;-93
2021/09/05 00:06:04;;;;;;;;;;;21.40;93.90;21.40;99515.00;;;;336032;28;96355;-93
2021/09/05 00:06:16;;;;;;;;;;;21.30;94.00;21.40;99513.00;;;;336856;28;83610;-94
2021/09/05 00:06:31;;;;;;;;;;;21.30;93.90;21.40;99520.00;;;;334747;29;96641;-93
2021/09/05 00:06:43;;;;;;;;;;;21.30;94.00;21.40;99511.00;;;;335349;29;83564;-93
2021/09/05 00:06:54;;;;;;;;;;;21.30;94.10;21.30;99514.00;;;;335855;28;95537;-93
2021/09/05 00:07:06;;;;;;;;;;;21.30;94.20;21.30;99515.00;;;;334067;29;83490;-93
2021/09/05 00:07:18;;;;;;;;;;;21.30;94.10;21.30;99514.00;;;;334694;29;97218;-93
2021/09/05 00:07:30;;;;;;;;;;;21.30;94.20;21.20;99522.00;;;;336767;28;83772;-95
2021/09/05 00:07:42;;;;;;;;;;;21.30;94.10;21.20;99520.00;;;;337297;28;96850;-93
2021/09/05 00:07:53;;;;;;;;;;;21.30;94.10;21.20;99516.00;;;;335523;29;83380;-93
2021/09/05 00:08:05;;;;;;;;;;;21.30;94.10;21.20;99506.00;;;;336034;28;96050;-93
2021/09/05 00:08:17;;;;;;;;;;;21.30;94.20;21.30;99508.00;;;;336699;28;83488;-92
2021/09/05 00:08:29;;;;;;;;;;;21.30;94.10;21.30;99508.00;;;;335926;28;96527;-93
2021/09/05 00:08:42;;;;;;;;;;;21.20;94.20;21.20;99515.00;;;;334761;29;83463;-93
2021/09/05 00:08:54;;;;;;;;;;;21.20;94.40;21.20;99516.00;;;;333447;29;95710;-92
2021/09/05 00:09:06;;;;;;;;;;;21.20;94.40;21.20;99520.00;;;;336814;28;83431;-93
2021/09/05 00:09:17;;;;;;;;;;;21.20;94.40;21.20;99512.00;;;;335406;28;96518;-93
2021/09/05 00:09:29;;;;;;;;;;;21.20;94.50;21.20;99513.00;;;;336733;28;83785;-94
2021/09/05 00:09:41;;;;;;;;;;;21.20;94.50;21.20;99519.00;;;;335870;28;94882;-94
2021/09/05 00:09:53;;;;;;;;;;;21.20;94.30;21.30;99518.00;;;;336738;28;83528;-94
2021/09/05 00:10:05;;;;;;;;;;;21.20;94.10;21.30;99518.00;;;;334766;29;95626;-93
2021/09/05 00:10:17;;;;;;;;;;;21.20;94.20;21.30;99511.00;;;;336646;28;82600;-94
2021/09/05 00:10:29;;;;;;;;;;;21.20;94.30;21.20;99515.00;;;;335996;28;96831;-93
2021/09/05 00:10:41;;;;;;;;;;;21.20;94.40;21.10;99523.00;;;;334228;29;83525;-94
2021/09/05 00:10:52;;;;;;;;;;;21.20;94.40;21.10;99519.00;;;;336096;28;93120;-93
2021/09/05 00:11:04;;;;;;;;;;;21.10;94.30;21.10;99510.00;;;;335529;29;83519;-94
2021/09/05 00:11:16;;;;;;;;;;;21.10;94.50;21.10;99516.00;;;;334737;29;93044;-92
2021/09/05 00:11:28;;;;;;;;;;;21.20;94.50;21.10;99512.00;;;;335384;29;83401;-93
2021/09/05 00:11:40;;;;;;;;;;;21.10;94.60;21.10;99516.00;;;;336051;28;93177;-94
2021/09/05 00:11:51;;;;;;;;;;;21.10;94.40;21.00;99512.00;;;;338428;28;82534;-94
2021/09/05 00:12:04;;;;;;;;;;;21.10;94.50;21.10;99519.00;;;;334708;29;96622;-93
2021/09/05 00:12:16;;;;;;;;;;;21.10;94.40;21.10;99517.00;;;;336109;28;83523;-93
2021/09/05 00:12:27;;;;;;;;;;;21.10;94.20;21.10;99520.00;;;;336016;28;96962;-93
2021/09/05 00:12:40;;;;;;;;;;;21.10;94.20;21.20;99525.00;;;;336782;28;83412;-94
2021/09/05 00:12:51;;;;;;;;;;;21.10;94.10;21.20;99516.00;;;;334654;29;95917;-93
2021/09/05 00:13:03;;;;;;;;;;;21.10;94.00;21.20;99513.00;;;;334222;29;82622;-93
2021/09/05 00:13:15;;;;;;;;;;;21.10;94.10;21.20;99518.00;;;;332077;29;95456;-93
2021/09/05 00:13:27;;;;;;;;;;;21.10;94.20;21.20;99512.00;;;;335453;29;83427;-93
2021/09/05 00:13:39;;;;;;;;;;;21.10;94.30;21.10;99513.00;;;;334752;29;96524;-94
2021/09/05 00:13:50;;;;;;;;;;;21.10;94.20;21.20;99518.00;;;;334006;29;83422;-93
2021/09/05 00:14:02;;;;;;;;;;;21.10;94.20;21.30;99514.00;;;;334755;29;96900;-94
2021/09/05 00:14:14;;;;;;;;;;;21.10;94.40;21.20;99522.00;;;;337599;28;83323;-93
2021/09/05 00:14:26;;;;;;;;;;;21.10;94.40;21.20;99517.00;;;;334781;29;94183;-92
2021/09/05 00:14:38;;;;;;;;;;;21.10;94.40;21.30;99518.00;;;;338053;28;82537;-92
2021/09/05 00:14:49;;;;;;;;;;;21.10;94.40;21.30;99508.00;;;;335212;28;95788;-95
2021/09/05 00:15:04;;;;;;;;;;;21.10;94.50;21.30;99514.00;;;;335385;28;83406;-94
2021/09/05 00:15:16;;;;;;;;;;;21.10;94.40;21.30;99515.00;;;;334796;28;96517;-92
2021/09/05 00:15:28;;;;;;;;;;;21.10;94.40;21.20;99516.00;;;;336861;28;83345;-93
2021/09/05 00:15:40;;;;;;;;;;;21.10;94.60;21.20;99509.00;;;;334723;28;96318;-94
2021/09/05 00:15:52;;;;;;;;;;;21.10;94.50;21.20;99517.00;;;;335401;29;83492;-94
2021/09/05 00:16:04;;;;;;;;;;;21.10;94.50;21.20;99518.00;;;;336064;28;97391;-93
2021/09/05 00:16:16;;;;;;;;;;;21.10;94.30;21.20;99521.00;;;;336714;28;83433;-92
2021/09/05 00:16:30;;;;;;;;;;;21.10;94.20;21.20;99512.00;;;;337317;28;96809;-94
2021/09/05 00:16:42;;;;;;;;;;;21.10;94.50;21.20;99512.00;;;;336811;28;83403;-94
2021/09/05 00:16:54;;;;;;;;;;;21.10;94.50;21.20;99516.00;;;;334625;29;95376;-93
2021/09/05 00:17:05;;;;;;;;;;;21.00;94.40;21.20;99521.00;;;;336705;28;83541;-93
2021/09/05 00:17:17;;;;;;;;;;;21.00;94.40;21.10;99517.00;;;;337288;28;96564;-92
2021/09/05 00:17:29;;;;;;;;;;;21.00;94.60;21.10;99517.00;;;;336780;28;83439;-94
2021/09/05 00:17:41;;;;;;;;;;;21.00;94.80;21.10;99512.00;;;;333092;29;96217;-92
2021/09/05 00:17:53;;;;;;;;;;;21.00;94.70;21.10;99505.00;;;;335317;28;83505;-92
2021/09/05 00:18:05;;;;;;;;;;;21.00;94.70;21.10;99520.00;;;;337428;28;93805;-93
2021/09/05 00:18:17;;;;;;;;;;;21.00;94.60;21.10;99519.00;;;;334267;29;83553;-93
2021/09/05 00:18:29;;;;;;;;;;;21.00;94.50;21.10;99518.00;;;;334767;29;93190;-93
2021/09/05 00:18:41;;;;;;;;;;;21.00;94.50;21.10;99519.00;;;;336749;28;83433;-92
2021/09/05 00:18:52;;;;;;;;;;;21.00;94.40;21.10;99515.00;;;;335944;28;95692;-93
2021/09/05 00:19:05;;;;;;;;;;;21.00;94.60;21.10;99510.00;;;;336868;28;83433;-93
2021/09/05 00:19:17;;;;;;;;;;;21.00;94.60;21.10;99521.00;;;;337284;28;97051;-93
2021/09/05 00:19:29;;;;;;;;;;;21.00;94.70;21.00;99511.00;;;;334145;29;82582;-93
2021/09/05 00:19:40;;;;;;;;;;;21.00;94.70;21.00;99519.00;;;;337378;28;95945;-93
2021/09/05 00:19:52;;;;;;;;;;;21.00;94.80;21.00;99520.00;;;;336788;28;83483;-93
2021/09/05 00:20:05;;;;;;;;;;;21.00;94.90;21.00;99517.00;;;;334685;29;96832;-92
2021/09/05 00:20:17;;;;;;;;;;;21.00;94.60;21.10;99511.00;;;;336540;28;83485;-92
2021/09/05 00:20:29;;;;;;;;;;;21.00;94.50;21.10;99517.00;;;;334727;29;94181;-93
2021/09/05 00:20:41;;;;;;;;;;;21.00;94.60;21.00;99518.00;;;;335097;29;83323;-93
2021/09/05 00:20:53;;;;;;;;;;;21.00;94.80;21.00;99517.00;;;;334126;29;95932;-92
2021/09/05 00:21:04;;;;;;;;;;;21.00;94.90;21.00;99513.00;;;;335576;29;82554;-93
2021/09/05 00:21:16;;;;;;;;;;;21.00;94.90;21.00;99519.00;;;;334690;29;95838;-93
2021/09/05 00:21:28;;;;;;;;;;;20.90;94.90;20.90;99513.00;;;;337917;28;83508;-93
2021/09/05 00:21:40;;;;;;;;;;;21.00;95.00;20.90;99522.00;;;;337107;28;95909;-93
2021/09/05 00:21:51;;;;;;;;;;;20.90;94.90;21.00;99515.00;;;;335448;29;82538;-93
2021/09/05 00:22:03;;;;;;;;;;;20.90;94.80;21.00;99516.00;;;;334772;29;95710;-94
2021/09/05 00:22:15;;;;;;;;;;;20.90;94.70;21.10;99515.00;;;;334089;29;83265;-93
2021/09/05 00:22:27;;;;;;;;;;;20.90;94.70;21.10;99518.00;;;;333439;29;96504;-94
2021/09/05 00:22:39;;;;;;;;;;;20.90;94.80;21.10;99520.00;;;;335521;29;83525;-94
2021/09/05 00:22:50;;;;;;;;;;;20.90;94.80;21.10;99519.00;;;;333442;29;96331;-94
2021/09/05 00:23:03;;;;;;;;;;;20.90;94.70;21.10;99519.00;;;;335509;29;82571;-93
2021/09/05 00:23:15;;;;;;;;;;;20.90;94.70;21.10;99522.00;;;;336060;28;93811;-93
2021/09/05 00:23:27;;;;;;;;;;;20.90;94.70;21.00;99518.00;;;;336593;28;83505;-93
2021/09/05 00:23:39;;;;;;;;;;;20.90;94.70;21.00;99520.00;;;;337007;28;96307;-93
2021/09/05 00:23:51;;;;;;;;;;;20.90;94.60;21.10;99511.00;;;;337575;28;83394;-94
2021/09/05 00:24:03;;;;;;;;;;;20.90;94.50;21.10;99514.00;;;;334564;29;94120;-94
2021/09/05 00:24:14;;;;;;;;;;;20.90;94.60;21.10;99522.00;;;;337949;28;82678;-93
2021/09/05 00:24:26;;;;;;;;;;;20.90;94.60;21.10;99513.00;;;;335987;28;96261;-93
2021/09/05 00:24:38;;;;;;;;;;;20.90;94.60;21.10;99512.00;;;;334213;29;83360;-94
2021/09/05 00:24:50;;;;;;;;;;;20.90;94.60;21.10;99516.00;;;;334514;29;96702;-94
2021/09/05 00:25:02;;;;;;;;;;;20.90;94.70;21.10;99514.00;;;;336774;28;83592;-93
2021/09/05 00:25:14;;;;;;;;;;;20.90;94.70;21.20;99519.00;;;;337294;28;96934;-93
2021/09/05 00:25:26;;;;;;;;;;;21.00;94.70;21.20;99517.00;;;;338067;28;83331;-92
2021/09/05 00:25:38;;;;;;;;;;;20.90;94.70;21.10;99517.00;;;;334659;29;96825;-93
2021/09/05 00:25:50;;;;;;;;;;;20.90;94.80;21.10;99515.00;;;;335325;28;82579;-94
2021/09/05 00:26:02;;;;;;;;;;;20.90;95.00;21.10;99519.00;;;;335942;28;97078;-94
2021/09/05 00:26:14;;;;;;;;;;;21.00;94.80;21.10;99521.00;;;;336856;28;83360;-93
2021/09/05 00:26:26;;;;;;;;;;;20.90;94.80;21.10;99517.00;;;;335958;28;96634;-93
2021/09/05 00:26:37;;;;;;;;;;;20.90;94.80;21.10;99515.00;;;;336782;28;83321;-93
2021/09/05 00:26:49;;;;;;;;;;;20.90;94.80;21.10;99521.00;;;;336977;28;95584;-92
2021/09/05 00:27:01;;;;;;;;;;;20.90;94.80;21.10;99521.00;;;;335185;29;82472;-92
2021/09/05 00:27:13;;;;;;;;;;;20.90;94.90;21.10;99516.00;;;;335834;28;96722;-93
2021/09/05 00:27:25;;;;;;;;;;;20.90;94.90;21.00;99513.00;;;;335575;29;83425;-92
2021/09/05 00:27:36;;;;;;;;;;;20.90;95.00;21.00;99522.00;;;;335841;28;96879;-93
2021/09/05 00:27:48;;;;;;;;;;;20.90;95.20;21.00;99512.00;;;;335617;28;83510;-93
2021/09/05 00:28:02;;;;;;;;;;;20.90;95.20;21.10;99519.00;;;;334558;29;95436;-94
2021/09/05 00:28:13;;;;;;;;;;;20.90;95.00;21.10;99517.00;;;;336762;28;82497;-93
2021/09/05 00:28:25;;;;;;;;;;;20.90;95.00;21.10;99515.00;;;;333233;29;95330;-93
2021/09/05 00:28:37;;;;;;;;;;;20.90;94.90;21.10;99519.00;;;;335421;28;83547;-93
2021/09/05 00:28:49;;;;;;;;;;;20.90;94.90;21.00;99512.00;;;;336035;28;94616;-94
2021/09/05 00:29:00;;;;;;;;;;;20.90;95.00;21.00;99513.00;;;;334139;29;83473;-93
2021/09/05 00:29:15;;;;;;;;;;;20.90;95.00;21.10;99518.00;;;;336018;28;96393;-94
2021/09/05 00:29:27;;;;;;;;;;;20.90;94.90;21.00;99520.00;;;;333995;29;83422;-92
2021/09/05 00:29:39;;;;;;;;;;;20.90;95.00;21.00;99515.00;;;;332728;29;97321;-92
2021/09/05 00:29:51;;;;;;;;;;;20.90;95.00;21.00;99519.00;;;;336758;28;83409;-93
2021/09/05 00:30:03;;;;;;;;;;;20.90;95.00;21.00;99512.00;;;;337193;28;96587;-94
2021/09/05 00:30:15;;;;;;;;;;;20.90;94.90;21.00;99510.00;;;;335336;29;83506;-93
2021/09/05 00:30:27;;;;;;;;;;;20.90;94.80;21.00;99516.00;;;;334505;29;96913;-93
2021/09/05 00:30:39;;;;;;;;;;;20.90;94.80;21.00;99519.00;;;;335431;29;83455;-94
2021/09/05 00:30:50;;;;;;;;;;;20.90;94.80;21.00;99515.00;;;;336060;28;93146;-93
2021/09/05 00:31:02;;;;;;;;;;;20.90;94.70;21.00;99513.00;;;;334155;29;82449;-94
2021/09/05 00:31:14;;;;;;;;;;;20.90;94.80;21.00;99514.00;;;;334769;29;92875;-94
2021/09/05 00:31:27;;;;;;;;;;;20.90;94.80;21.10;99510.00;;;;336743;28;83464;-93
2021/09/05 00:31:39;;;;;;;;;;;20.90;94.80;21.00;99514.00;;;;334638;29;96489;-93
2021/09/05 00:31:52;;;;;;;;;;;20.90;94.80;21.00;99518.00;;;;332837;29;83231;-93
2021/09/05 00:32:04;;;;;;;;;;;20.90;94.90;21.00;99522.00;;;;334693;29;96013;-93
2021/09/05 00:32:16;;;;;;;;;;;20.90;95.00;21.00;99514.00;;;;336704;28;83463;-92
2021/09/05 00:32:28;;;;;;;;;;;20.90;94.90;21.00;99519.00;;;;333176;29;95320;-92
2021/09/05 00:32:40;;;;;;;;;;;20.90;94.90;21.00;99515.00;;;;336885;28;82501;-92
2021/09/05 00:32:52;;;;;;;;;;;20.90;95.00;21.00;99515.00;;;;334618;29;93649;-94
2021/09/05 00:33:07;;;;;;;;;;;20.90;95.00;21.00;99516.00;;;;334111;29;83542;-93
2021/09/05 00:33:19;;;;;;;;;;;20.90;95.10;20.90;99511.00;;;;334820;29;93107;-94
2021/09/05 00:33:30;;;;;;;;;;;20.90;95.30;20.90;99512.00;;;;335460;29;83379;-93
2021/09/05 00:33:42;;;;;;;;;;;20.90;95.10;20.90;99509.00;;;;332240;29;96686;-93
2021/09/05 00:33:58;;;;;;;;;;;20.80;95.10;20.90;99518.00;;;;334204;29;83490;-93
2021/09/05 00:34:10;;;;;;;;;;;20.90;95.00;20.90;99515.00;;;;334633;29;96586;-93
2021/09/05 00:34:22;;;;;;;;;;;20.90;95.00;21.00;99516.00;;;;336784;28;82639;-93
2021/09/05 00:34:34;;;;;;;;;;;20.90;95.10;21.00;99515.00;;;;337319;28;96413;-92
2021/09/05 00:34:45;;;;;;;;;;;20.80;94.90;20.90;99511.00;;;;335512;29;82473;-93
2021/09/05 00:34:57;;;;;;;;;;;20.80;94.90;20.90;99518.00;;;;334694;29;96569;-93
2021/09/05 00:35:10;;;;;;;;;;;20.80;95.00;20.90;99514.00;;;;335457;28;82517;-93
2021/09/05 00:35:21;;;;;;;;;;;20.80;95.10;20.90;99517.00;;;;332219;29;96217;-93
2021/09/05 00:35:34;;;;;;;;;;;20.80;95.20;21.00;99514.00;;;;335431;29;83376;-93
2021/09/05 00:35:49;;;;;;;;;;;20.80;95.10;21.00;99515.00;;;;334568;28;96721;-93
2021/09/05 00:36:01;;;;;;;;;;;20.90;95.10;21.00;99509.00;;;;334189;29;82571;-93
2021/09/05 00:36:12;;;;;;;;;;;20.90;95.10;20.90;99521.00;;;;333620;29;96598;-93
2021/09/05 00:36:25;;;;;;;;;;;20.90;95.10;20.90;99516.00;;;;335367;29;83499;-93
2021/09/05 00:36:36;;;;;;;;;;;20.80;95.20;20.90;99523.00;;;;333445;29;96511;-93
2021/09/05 00:36:48;;;;;;;;;;;20.80;95.40;20.80;99513.00;;;;336814;28;83349;-92
2021/09/05 00:37:00;;;;;;;;;;;20.80;95.40;20.80;99517.00;;;;336099;28;95194;-94
2021/09/05 00:37:12;;;;;;;;;;;20.80;95.30;20.80;99516.00;;;;338045;28;83525;-94
2021/09/05 00:37:23;;;;;;;;;;;20.80;95.30;20.80;99521.00;;;;334700;29;95505;-93
2021/09/05 00:37:35;;;;;;;;;;;20.80;95.40;20.90;99518.00;;;;337919;28;82491;-92
2021/09/05 00:37:47;;;;;;;;;;;20.80;95.30;20.80;99522.00;;;;336042;28;94170;-93
2021/09/05 00:37:59;;;;;;;;;;;20.80;95.30;20.70;99518.00;;;;338107;28;83445;-93
2021/09/05 00:38:10;;;;;;;;;;;20.80;95.40;20.80;99517.00;;;;334786;29;96182;-93
2021/09/05 00:38:23;;;;;;;;;;;20.80;95.40;20.90;99511.00;;;;336748;28;83498;-93
2021/09/05 00:38:34;;;;;;;;;;;20.80;95.30;20.90;99509.00;;;;333492;29;94429;-93
2021/09/05 00:38:46;;;;;;;;;;;20.80;95.50;20.90;99519.00;;;;334140;29;83457;-94
2021/09/05 00:38:58;;;;;;;;;;;20.80;95.30;20.90;99510.00;;;;336132;28;92415;-93
2021/09/05 00:39:10;;;;;;;;;;;20.80;95.20;20.90;99508.00;;;;339172;28;82470;-93
2021/09/05 00:39:22;;;;;;;;;;;20.80;95.20;20.90;99516.00;;;;333448;29;96384;-93
2021/09/05 00:39:34;;;;;;;;;;;20.80;95.30;20.80;99522.00;;;;335377;29;83488;-92
2021/09/05 00:39:45;;;;;;;;;;;20.80;95.40;20.80;99518.00;;;;333312;29;96531;-93
2021/09/05 00:39:57;;;;;;;;;;;20.80;95.30;20.80;99521.00;;;;336680;28;82559;-93
2021/09/05 00:40:10;;;;;;;;;;;20.80;95.30;20.80;99514.00;;;;335872;28;94334;-93
2021/09/05 00:40:21;;;;;;;;;;;20.80;95.70;20.90;99518.00;;;;335483;29;82498;-91
2021/09/05 00:40:33;;;;;;;;;;;20.80;95.20;20.80;99520.00;;;;337311;28;96271;-93
2021/09/05 00:40:45;;;;;;;;;;;20.80;95.40;20.80;99524.00;;;;335584;29;82442;-94
2021/09/05 00:40:57;;;;;;;;;;;20.80;95.40;20.90;99517.00;;;;333504;29;95823;-93
2021/09/05 00:41:09;;;;;;;;;;;20.80;95.30;20.90;99516.00;;;;335544;29;82477;-93
2021/09/05 00:41:21;;;;;;;;;;;20.80;95.30;20.90;99519.00;;;;334724;29;97119;-93
2021/09/05 00:41:33;;;;;;;;;;;20.80;95.30;21.00;99521.00;;;;336710;28;83468;-94
2021/09/05 00:41:45;;;;;;;;;;;20.80;95.40;20.90;99517.00;;;;333425;29;96906;-92
2021/09/05 00:41:57;;;;;;;;;;;20.70;95.60;20.80;99525.00;;;;334335;29;82431;-94
2021/09/05 00:42:09;;;;;;;;;;;20.70;95.50;20.80;99521.00;;;;334657;29;96633;-94
2021/09/05 00:42:23;;;;;;;;;;;20.70;95.50;20.80;99514.00;;;;338219;28;82387;-93
2021/09/05 00:42:35;;;;;;;;;;;20.80;95.40;20.80;99519.00;;;;336045;28;95941;-93
2021/09/05 00:42:47;;;;;;;;;;;20.70;95.40;20.80;99527.00;;;;338097;28;82479;-92
2021/09/05 00:42:59;;;;;;;;;;;20.70;95.50;20.80;99521.00;;;;335898;28;95632;-93
2021/09/05 00:43:11;;;;;;;;;;;20.70;95.70;20.80;99514.00;;;;334197;29;83423;-92
2021/09/05 00:43:23;;;;;;;;;;;20.70;95.60;20.90;99519.00;;;;337325;28;97343;-93
2021/09/05 00:43:54;;;;;;;;;;;20.70;95.50;20.90;99521.00;;;;336709;28;83457;-94
2021/09/05 00:44:07;;;;;;;;;;;20.70;95.50;20.80;99522.00;;;;336029;28;97317;-93
2021/09/05 00:44:18;;;;;;;;;;;20.70;95.70;20.90;99518.00;;;;338058;28;83151;-93
2021/09/05 00:44:30;;;;;;;;;;;20.70;95.30;20.80;99520.00;;;;336109;28;92749;-93
2021/09/05 00:44:42;;;;;;;;;;;20.70;95.30;20.80;99522.00;;;;334770;29;83452;-92
2021/09/05 00:44:54;;;;;;;;;;;20.70;95.40;20.80;99518.00;;;;334614;28;96408;-94
2021/09/05 00:45:06;;;;;;;;;;;20.70;95.40;20.90;99524.00;;;;335527;29;82547;-93
2021/09/05 00:45:19;;;;;;;;;;;20.70;95.60;20.90;99514.00;;;;333429;29;95223;-94
2021/09/05 00:45:31;;;;;;;;;;;20.70;95.40;20.90;99520.00;;;;334267;29;82391;-94
2021/09/05 00:45:43;;;;;;;;;;;20.70;95.30;20.90;99517.00;;;;334493;29;94484;-92
2021/09/05 00:45:54;;;;;;;;;;;20.70;95.30;20.90;99520.00;;;;335426;29;82561;-93
2021/09/05 00:46:09;;;;;;;;;;;20.70;95.50;20.80;99517.00;;;;334773;29;95238;-93
2021/09/05 00:46:21;;;;;;;;;;;20.70;95.60;20.80;99518.00;;;;336650;28;83351;-94
2021/09/05 00:46:34;;;;;;;;;;;20.70;95.50;20.80;99518.00;;;;334592;29;95878;-91
2021/09/05 00:46:46;;;;;;;;;;;20.70;95.60;20.80;99513.00;;;;335499;29;83407;-94
2021/09/05 00:46:58;;;;;;;;;;;20.70;95.60;20.80;99516.00;;;;333507;29;94232;-93
2021/09/05 00:47:10;;;;;;;;;;;20.70;95.50;20.80;99516.00;;;;335501;29;82463;-93
2021/09/05 00:47:21;;;;;;;;;;;20.70;95.40;20.80;99521.00;;;;333522;29;94620;-94
2021/09/05 00:47:33;;;;;;;;;;;20.70;95.40;20.80;99515.00;;;;335425;29;83502;-94
2021/09/05 00:47:45;;;;;;;;;;;20.70;95.40;20.80;99523.00;;;;334196;28;95680;-93
2021/09/05 00:47:57;;;;;;;;;;;20.70;95.40;20.70;99518.00;;;;336641;28;83396;-94
2021/09/05 00:48:09;;;;;;;;;;;20.70;95.40;20.80;99520.00;;;;335980;28;97024;-94
2021/09/05 00:48:20;;;;;;;;;;;20.70;95.30;20.90;99521.00;;;;337960;28;82518;-94
2021/09/05 00:48:32;;;;;;;;;;;20.70;95.30;20.80;99509.00;;;;337277;28;97176;-93
2021/09/05 00:48:44;;;;;;;;;;;20.70;95.50;20.80;99523.00;;;;338201;28;83285;-94
2021/09/05 00:48:56;;;;;;;;;;;20.70;95.90;20.70;99512.00;;;;335953;28;94288;-93
2021/09/05 00:49:08;;;;;;;;;;;20.70;95.60;20.60;99513.00;;;;336794;28;82445;-93
2021/09/05 00:49:20;;;;;;;;;;;20.70;95.60;20.70;99518.00;;;;336049;28;96022;-93
2021/09/05 00:49:32;;;;;;;;;;;20.70;95.70;20.80;99517.00;;;;336734;28;83557;-93
2021/09/05 00:49:44;;;;;;;;;;;20.70;95.70;20.90;99522.00;;;;336078;28;96686;-93
2021/09/05 00:49:55;;;;;;;;;;;20.70;95.60;21.00;99520.00;;;;336858;28;83297;-94
2021/09/05 00:50:08;;;;;;;;;;;20.70;95.60;20.90;99519.00;;;;334735;29;94204;-94
2021/09/05 00:50:20;;;;;;;;;;;20.70;95.60;20.90;99514.00;;;;336746;28;83377;-93
2021/09/05 00:50:32;;;;;;;;;;;20.70;95.50;20.90;99515.00;;;;334487;29;96576;-93
2021/09/05 00:50:44;;;;;;;;;;;20.70;95.80;20.80;99520.00;;;;334205;29;83338;-92
2021/09/05 00:50:56;;;;;;;;;;;20.70;95.80;20.70;99521.00;;;;333374;29;93035;-93
2021/09/05 00:51:08;;;;;;;;;;;20.70;95.90;20.70;99521.00;;;;336905;28;82370;-94
2021/09/05 00:51:21;;;;;;;;;;;20.70;95.80;20.70;99516.00;;;;336103;28;93878;-93
2021/09/05 00:51:39;;;;;;;;;;;20.70;95.90;20.70;99522.00;;;;336724;28;83439;-94
2021/09/05 00:51:51;;;;;;;;;;;20.60;95.70;20.70;99517.00;;;;334602;29;95577;-94
2021/09/05 00:52:04;;;;;;;;;;;20.60;95.70;20.70;99509.00;;;;332832;29;83440;-94
2021/09/05 00:52:16;;;;;;;;;;;20.60;95.80;20.60;99510.00;;;;333132;29;95720;-94
2021/09/05 00:52:28;;;;;;;;;;;20.70;95.80;20.70;99517.00;;;;336699;28;83519;-93
2021/09/05 00:52:39;;;;;;;;;;;20.60;95.80;20.70;99512.00;;;;336078;28;97310;-93
2021/09/05 00:52:53;;;;;;;;;;;20.60;95.70;20.70;99516.00;;;;334089;29;82549;-94
2021/09/05 00:53:05;;;;;;;;;;;20.60;95.80;20.70;99514.00;;;;332098;29;97462;-93
2021/09/05 00:53:17;;;;;;;;;;;20.60;95.80;20.70;99517.00;;;;334199;29;82473;-94
2021/09/05 00:53:29;;;;;;;;;;;20.60;95.80;20.60;99516.00;;;;334687;29;95776;-93
2021/09/05 00:53:40;;;;;;;;;;;20.60;95.90;20.60;99511.00;;;;334213;29;83242;-94
2021/09/05 00:53:52;;;;;;;;;;;20.60;95.90;20.60;99511.00;;;;335718;28;94190;-94
2021/09/05 00:54:05;;;;;;;;;;;20.60;95.80;20.70;99508.00;;;;335567;29;82413;-93
2021/09/05 00:54:17;;;;;;;;;;;20.60;95.80;20.60;99511.00;;;;336082;28;94308;-94
2021/09/05 00:54:29;;;;;;;;;;;20.60;95.90;20.60;99516.00;;;;336780;28;82476;-93
2021/09/05 00:54:43;;;;;;;;;;;20.60;96.10;20.70;99526.00;;;;334821;29;93771;-93
2021/09/05 00:54:55;;;;;;;;;;;20.60;95.70;20.70;99516.00;;;;335435;29;82601;-93
2021/09/05 00:55:07;;;;;;;;;;;20.60;95.70;20.70;99520.00;;;;335952;28;97059;-94
2021/09/05 00:55:20;;;;;;;;;;;20.60;95.60;20.70;99521.00;;;;336862;28;82353;-93
2021/09/05 00:55:37;;;;;;;;;;;20.60;95.60;20.70;99511.00;;;;337394;28;93416;-94
2021/09/05 00:55:49;;;;;;;;;;;20.60;95.70;20.70;99515.00;;;;336819;28;83349;-93
2021/09/05 00:56:01;;;;;;;;;;;20.60;95.90;20.80;99518.00;;;;337260;28;96476;-92
2021/09/05 00:56:13;;;;;;;;;;;20.60;95.80;20.70;99514.00;;;;336717;28;83464;-94
2021/09/05 00:56:28;;;;;;;;;;;20.60;95.70;20.70;99516.00;;;;336045;28;92739;-92
2021/09/05 00:56:42;;;;;;;;;;;20.60;95.70;20.70;99513.00;;;;334289;29;82387;-93
2021/09/05 00:56:54;;;;;;;;;;;20.60;95.90;20.60;99506.00;;;;333235;29;94600;-93
2021/09/05 00:57:05;;;;;;;;;;;20.60;96.00;20.60;99516.00;;;;335293;29;83492;-93
2021/09/05 00:57:18;;;;;;;;;;;20.60;96.00;20.60;99516.00;;;;333440;29;96424;-93
2021/09/05 00:57:29;;;;;;;;;;;20.60;95.90;20.60;99513.00;;;;335469;29;83745;-93
2021/09/05 00:57:45;;;;;;;;;;;20.60;96.00;20.50;99518.00;;;;333542;29;95614;-94
2021/09/05 00:57:57;;;;;;;;;;;20.60;96.00;20.50;99517.00;;;;336829;28;83341;-93
2021/09/05 00:58:09;;;;;;;;;;;20.50;96.00;20.50;99514.00;;;;334640;29;95650;-93
2021/09/05 00:58:21;;;;;;;;;;;20.50;96.30;20.60;99511.00;;;;338240;28;82659;-94
2021/09/05 00:58:34;;;;;;;;;;;20.50;95.90;20.60;99516.00;;;;335930;28;95713;-94
2021/09/05 00:58:46;;;;;;;;;;;20.50;95.90;20.50;99511.00;;;;334177;29;83395;-93
2021/09/05 00:59:02;;;;;;;;;;;20.50;95.90;20.50;99515.00;;;;335934;28;96651;-94
2021/09/05 00:59:19;;;;;;;;;;;20.50;95.90;20.50;99509.00;;;;336685;28;83349;-92
2021/09/05 00:59:33;;;;;;;;;;;20.50;96.00;20.60;99515.00;;;;333327;29;96940;-93
2021/09/05 00:59:48;;;;;;;;;;;20.50;95.90;20.60;99512.00;;;;335245;29;83632;-93
2021/09/05 01:00:00;;;;;;;;;;;20.50;95.90;20.70;99508.00;;;;337262;28;95894;-94
2021/09/05 01:00:12;;;;;;;;;;;20.50;95.80;20.60;99510.00;;;;339317;28;83683;-94
2021/09/05 01:00:25;;;;;;;;;;;20.50;96.00;20.60;99514.00;;;;337329;28;96339;-94